sensor_id;sensor_type;location;lat;lon;timestamp;P1;durP1;ratioP1;P2;durP2;ratioP2
81152;SDS011;70630;45.546;10.198;2023-07-22T01:44:47;9.63;;;4.68;;
81152;SDS011;70630;45.546;10.198;2023-07-22T01:47:13;8.43;;;4.60;;
81152;SDS011;70630;45.546;10.198;2023-07-22T01:49:39;9.85;;;4.70;;
81152;SDS011;70630;45.546;10.198;2023-07-22T01:52:05;11.23;;;5.28;;
81152;SDS011;70630;45.546;10.198;2023-07-22T01:54:32;10.90;;;4.85;;
81152;SDS011;70630;45.546;10.198;2023-07-22T01:56:58;10.10;;;5.10;;
81152;SDS011;70630;45.546;10.198;2023-07-22T01:59:27;9.10;;;4.93;;
81152;SDS011;70630;45.546;10.198;2023-07-22T02:01:53;11.65;;;5.28;;
81152;SDS011;70630;45.546;10.198;2023-07-22T02:04:19;9.38;;;4.93;;
81152;SDS011;70630;45.546;10.198;2023-07-22T02:06:45;10.32;;;4.60;;
81152;SDS011;70630;45.546;10.198;2023-07-22T02:09:12;9.70;;;5.13;;
81152;SDS011;70630;45.546;10.198;2023-07-22T02:11:39;9.35;;;5.00;;
81152;SDS011;70630;45.546;10.198;2023-07-22T02:14:05;10.40;;;4.80;;
81152;SDS011;70630;45.546;10.198;2023-07-22T02:16:37;11.52;;;5.30;;
81152;SDS011;70630;45.546;10.198;2023-07-22T02:19:03;12.45;;;5.07;;
81152;SDS011;70630;45.546;10.198;2023-07-22T02:21:29;10.75;;;4.90;;
81152;SDS011;70630;45.546;10.198;2023-07-22T02:23:55;12.32;;;4.97;;
81152;SDS011;70630;45.546;10.198;2023-07-22T02:26:21;10.88;;;5.15;;
81152;SDS011;70630;45.546;10.198;2023-07-22T02:28:47;9.52;;;5.30;;
81152;SDS011;70630;45.546;10.198;2023-07-22T02:31:13;10.80;;;5.25;;
81152;SDS011;70630;45.546;10.198;2023-07-22T02:33:39;12.05;;;5.38;;
81152;SDS011;70630;45.546;10.198;2023-07-22T02:36:06;11.13;;;5.30;;
81152;SDS011;70630;45.546;10.198;2023-07-22T02:38:32;12.02;;;5.30;;
81152;SDS011;70630;45.546;10.198;2023-07-22T02:41:02;11.63;;;5.10;;
81152;SDS011;70630;45.546;10.198;2023-07-22T02:43:28;9.52;;;5.18;;
81152;SDS011;70630;45.546;10.198;2023-07-22T02:45:54;17.75;;;5.32;;
81152;SDS011;70630;45.546;10.198;2023-07-22T02:48:20;10.68;;;5.57;;
81152;SDS011;70630;45.546;10.198;2023-07-22T02:50:46;9.68;;;5.35;;
81152;SDS011;70630;45.546;10.198;2023-07-22T02:53:15;11.73;;;4.85;;
81152;SDS011;70630;45.546;10.198;2023-07-22T02:55:41;10.90;;;5.38;;
81152;SDS011;70630;45.546;10.198;2023-07-22T02:58:07;9.57;;;5.07;;
81152;SDS011;70630;45.546;10.198;2023-07-22T03:00:33;12.52;;;5.45;;
81152;SDS011;70630;45.546;10.198;2023-07-22T03:02:59;8.18;;;4.80;;
81152;SDS011;70630;45.546;10.198;2023-07-22T03:05:26;10.63;;;4.97;;
81152;SDS011;70630;45.546;10.198;2023-07-22T03:07:53;11.18;;;5.45;;
81152;SDS011;70630;45.546;10.198;2023-07-22T03:10:19;9.88;;;4.38;;
81152;SDS011;70630;45.546;10.198;2023-07-22T03:12:45;12.18;;;5.53;;
81152;SDS011;70630;45.546;10.198;2023-07-22T03:15:11;10.30;;;4.95;;
81152;SDS011;70630;45.546;10.198;2023-07-22T03:17:38;11.30;;;4.97;;
81152;SDS011;70630;45.546;10.198;2023-07-22T03:20:09;10.60;;;4.82;;
81152;SDS011;70630;45.546;10.198;2023-07-22T03:22:39;10.45;;;5.45;;
81152;SDS011;70630;45.546;10.198;2023-07-22T03:25:05;10.43;;;5.10;;
81152;SDS011;70630;45.546;10.198;2023-07-22T03:27:34;11.82;;;5.55;;
81152;SDS011;70630;45.546;10.198;2023-07-22T03:30:01;11.13;;;5.30;;
81152;SDS011;70630;45.546;10.198;2023-07-22T03:32:27;10.30;;;4.80;;
81152;SDS011;70630;45.546;10.198;2023-07-22T03:34:53;12.13;;;5.32;;
81152;SDS011;70630;45.546;10.198;2023-07-22T03:37:19;9.10;;;5.05;;
81152;SDS011;70630;45.546;10.198;2023-07-22T03:39:45;12.23;;;5.50;;
81152;SDS011;70630;45.546;10.198;2023-07-22T03:42:11;10.38;;;5.15;;
81152;SDS011;70630;45.546;10.198;2023-07-22T03:44:37;10.15;;;5.22;;
81152;SDS011;70630;45.546;10.198;2023-07-22T03:47:05;11.18;;;5.00;;
81152;SDS011;70630;45.546;10.198;2023-07-22T03:49:32;9.80;;;5.07;;
81152;SDS011;70630;45.546;10.198;2023-07-22T03:51:58;10.65;;;5.13;;
81152;SDS011;70630;45.546;10.198;2023-07-22T03:54:24;12.30;;;4.88;;
81152;SDS011;70630;45.546;10.198;2023-07-22T03:56:53;9.65;;;5.20;;
81152;SDS011;70630;45.546;10.198;2023-07-22T03:59:19;11.57;;;5.60;;
81152;SDS011;70630;45.546;10.198;2023-07-22T04:01:45;10.70;;;5.00;;
81152;SDS011;70630;45.546;10.198;2023-07-22T04:04:12;10.73;;;5.22;;
81152;SDS011;70630;45.546;10.198;2023-07-22T04:06:38;11.38;;;5.40;;
81152;SDS011;70630;45.546;10.198;2023-07-22T04:09:04;11.35;;;5.10;;
81152;SDS011;70630;45.546;10.198;2023-07-22T04:11:30;8.88;;;4.90;;
81152;SDS011;70630;45.546;10.198;2023-07-22T04:13:56;10.02;;;5.13;;
81152;SDS011;70630;45.546;10.198;2023-07-22T04:16:22;11.23;;;5.20;;
81152;SDS011;70630;45.546;10.198;2023-07-22T04:18:48;11.38;;;5.32;;
81152;SDS011;70630;45.546;10.198;2023-07-22T04:21:14;10.88;;;4.90;;
81152;SDS011;70630;45.546;10.198;2023-07-22T04:23:40;13.60;;;5.28;;
81152;SDS011;70630;45.546;10.198;2023-07-22T04:26:06;11.18;;;5.13;;
81152;SDS011;70630;45.546;10.198;2023-07-22T04:28:33;11.35;;;5.40;;
81152;SDS011;70630;45.546;10.198;2023-07-22T04:31:00;10.13;;;5.72;;
81152;SDS011;70630;45.546;10.198;2023-07-22T04:33:26;10.45;;;5.20;;
81152;SDS011;70630;45.546;10.198;2023-07-22T04:35:57;9.65;;;5.25;;
81152;SDS011;70630;45.546;10.198;2023-07-22T04:38:23;11.05;;;5.05;;
81152;SDS011;70630;45.546;10.198;2023-07-22T04:40:49;11.30;;;5.18;;
81152;SDS011;70630;45.546;10.198;2023-07-22T04:43:15;10.07;;;5.90;;
81152;SDS011;70630;45.546;10.198;2023-07-22T04:45:44;12.68;;;5.50;;
81152;SDS011;70630;45.546;10.198;2023-07-22T04:48:10;10.13;;;5.28;;
81152;SDS011;70630;45.546;10.198;2023-07-22T04:50:36;12.68;;;5.18;;
81152;SDS011;70630;45.546;10.198;2023-07-22T04:53:05;10.07;;;5.05;;
81152;SDS011;70630;45.546;10.198;2023-07-22T04:55:32;11.15;;;4.88;;
81152;SDS011;70630;45.546;10.198;2023-07-22T04:57:58;10.60;;;5.13;;
81152;SDS011;70630;45.546;10.198;2023-07-22T05:00:24;11.35;;;6.00;;
81152;SDS011;70630;45.546;10.198;2023-07-22T05:02:51;10.43;;;4.72;;
81152;SDS011;70630;45.546;10.198;2023-07-22T05:05:20;12.93;;;5.25;;
81152;SDS011;70630;45.546;10.198;2023-07-22T05:07:46;10.60;;;5.13;;
81152;SDS011;70630;45.546;10.198;2023-07-22T05:10:17;12.95;;;5.88;;
81152;SDS011;70630;45.546;10.198;2023-07-22T05:12:44;12.73;;;5.47;;
81152;SDS011;70630;45.546;10.198;2023-07-22T05:15:11;13.43;;;4.90;;
81152;SDS011;70630;45.546;10.198;2023-07-22T05:17:37;12.13;;;4.88;;
81152;SDS011;70630;45.546;10.198;2023-07-22T05:20:03;14.38;;;5.30;;
81152;SDS011;70630;45.546;10.198;2023-07-22T05:22:31;11.63;;;5.70;;
81152;SDS011;70630;45.546;10.198;2023-07-22T05:24:57;10.35;;;5.05;;
81152;SDS011;70630;45.546;10.198;2023-07-22T05:27:23;10.77;;;5.43;;
81152;SDS011;70630;45.546;10.198;2023-07-22T05:29:49;10.32;;;5.10;;
81152;SDS011;70630;45.546;10.198;2023-07-22T05:32:15;9.70;;;5.45;;
81152;SDS011;70630;45.546;10.198;2023-07-22T05:34:41;11.38;;;5.78;;
81152;SDS011;70630;45.546;10.198;2023-07-22T05:37:07;9.85;;;4.97;;
81152;SDS011;70630;45.546;10.198;2023-07-22T05:39:33;9.95;;;5.18;;
81152;SDS011;70630;45.546;10.198;2023-07-22T05:41:59;9.05;;;4.72;;
81152;SDS011;70630;45.546;10.198;2023-07-22T05:44:26;7.60;;;4.57;;
81152;SDS011;70630;45.546;10.198;2023-07-22T05:46:52;8.82;;;5.22;;
81152;SDS011;70630;45.546;10.198;2023-07-22T05:49:18;10.65;;;5.10;;
81152;SDS011;70630;45.546;10.198;2023-07-22T05:51:44;10.50;;;5.28;;
81152;SDS011;70630;45.546;10.198;2023-07-22T05:54:10;12.43;;;5.35;;
81152;SDS011;70630;45.546;10.198;2023-07-22T05:56:36;10.82;;;5.20;;
81152;SDS011;70630;45.546;10.198;2023-07-22T05:59:02;10.48;;;5.43;;
81152;SDS011;70630;45.546;10.198;2023-07-22T06:01:28;11.02;;;5.55;;
81152;SDS011;70630;45.546;10.198;2023-07-22T06:03:54;8.45;;;4.90;;
81152;SDS011;70630;45.546;10.198;2023-07-22T06:06:20;7.88;;;4.43;;
81152;SDS011;70630;45.546;10.198;2023-07-22T06:08:46;10.80;;;4.90;;
81152;SDS011;70630;45.546;10.198;2023-07-22T06:11:12;10.75;;;4.53;;
81152;SDS011;70630;45.546;10.198;2023-07-22T06:13:38;8.20;;;4.30;;
81152;SDS011;70630;45.546;10.198;2023-07-22T06:16:04;8.48;;;4.40;;
81152;SDS011;70630;45.546;10.198;2023-07-22T06:18:30;10.45;;;4.35;;
81152;SDS011;70630;45.546;10.198;2023-07-22T06:20:56;8.32;;;4.20;;
81152;SDS011;70630;45.546;10.198;2023-07-22T06:23:22;8.93;;;3.92;;
81152;SDS011;70630;45.546;10.198;2023-07-22T06:25:48;9.68;;;4.00;;
81152;SDS011;70630;45.546;10.198;2023-07-22T06:28:17;9.43;;;4.30;;
81152;SDS011;70630;45.546;10.198;2023-07-22T06:30:43;9.98;;;4.20;;
81152;SDS011;70630;45.546;10.198;2023-07-22T06:33:09;8.32;;;3.90;;
81152;SDS011;70630;45.546;10.198;2023-07-22T06:35:35;9.23;;;4.00;;
81152;SDS011;70630;45.546;10.198;2023-07-22T06:38:01;7.80;;;3.90;;
81152;SDS011;70630;45.546;10.198;2023-07-22T06:40:28;8.07;;;4.20;;
81152;SDS011;70630;45.546;10.198;2023-07-22T06:42:54;7.20;;;3.50;;
81152;SDS011;70630;45.546;10.198;2023-07-22T06:45:20;9.35;;;4.05;;
81152;SDS011;70630;45.546;10.198;2023-07-22T06:47:46;8.98;;;3.97;;
81152;SDS011;70630;45.546;10.198;2023-07-22T06:50:12;8.70;;;3.97;;
81152;SDS011;70630;45.546;10.198;2023-07-22T06:52:38;9.73;;;4.30;;
81152;SDS011;70630;45.546;10.198;2023-07-22T06:55:04;7.10;;;3.63;;
81152;SDS011;70630;45.546;10.198;2023-07-22T06:57:31;10.48;;;4.13;;
81152;SDS011;70630;45.546;10.198;2023-07-22T06:59:57;8.13;;;3.80;;
81152;SDS011;70630;45.546;10.198;2023-07-22T07:02:23;8.23;;;3.50;;
81152;SDS011;70630;45.546;10.198;2023-07-22T07:04:49;7.97;;;3.58;;
81152;SDS011;70630;45.546;10.198;2023-07-22T07:07:15;8.38;;;3.60;;
81152;SDS011;70630;45.546;10.198;2023-07-22T07:09:41;9.13;;;3.70;;
81152;SDS011;70630;45.546;10.198;2023-07-22T07:12:08;7.85;;;3.70;;
81152;SDS011;70630;45.546;10.198;2023-07-22T07:14:34;8.90;;;3.78;;
81152;SDS011;70630;45.546;10.198;2023-07-22T07:17:00;9.00;;;3.92;;
81152;SDS011;70630;45.546;10.198;2023-07-22T07:19:27;7.18;;;3.40;;
81152;SDS011;70630;45.546;10.198;2023-07-22T07:21:53;10.73;;;3.85;;
81152;SDS011;70630;45.546;10.198;2023-07-22T07:24:19;8.82;;;3.67;;
81152;SDS011;70630;45.546;10.198;2023-07-22T07:26:45;10.15;;;3.70;;
81152;SDS011;70630;45.546;10.198;2023-07-22T07:29:11;7.53;;;3.92;;
81152;SDS011;70630;45.546;10.198;2023-07-22T07:31:38;7.40;;;3.50;;
81152;SDS011;70630;45.546;10.198;2023-07-22T07:34:04;7.03;;;3.38;;
81152;SDS011;70630;45.546;10.198;2023-07-22T07:36:31;8.50;;;3.58;;
81152;SDS011;70630;45.546;10.198;2023-07-22T07:38:57;8.32;;;3.90;;
81152;SDS011;70630;45.546;10.198;2023-07-22T07:41:23;6.70;;;3.13;;
81152;SDS011;70630;45.546;10.198;2023-07-22T07:43:49;7.22;;;3.15;;
81152;SDS011;70630;45.546;10.198;2023-07-22T07:46:16;5.93;;;2.80;;
81152;SDS011;70630;45.546;10.198;2023-07-22T07:49:01;7.03;;;2.90;;
81152;SDS011;70630;45.546;10.198;2023-07-22T07:51:28;7.53;;;2.78;;
81152;SDS011;70630;45.546;10.198;2023-07-22T07:53:55;7.03;;;2.78;;
81152;SDS011;70630;45.546;10.198;2023-07-22T07:56:22;6.35;;;2.42;;
81152;SDS011;70630;45.546;10.198;2023-07-22T07:58:49;6.10;;;2.55;;
81152;SDS011;70630;45.546;10.198;2023-07-22T08:01:15;6.05;;;2.60;;
81152;SDS011;70630;45.546;10.198;2023-07-22T08:03:42;7.55;;;2.67;;
81152;SDS011;70630;45.546;10.198;2023-07-22T08:06:09;5.88;;;2.53;;
81152;SDS011;70630;45.546;10.198;2023-07-22T08:08:35;6.28;;;2.70;;
81152;SDS011;70630;45.546;10.198;2023-07-22T08:11:02;6.25;;;2.30;;
81152;SDS011;70630;45.546;10.198;2023-07-22T08:13:29;11.05;;;2.90;;
81152;SDS011;70630;45.546;10.198;2023-07-22T08:15:59;8.05;;;2.80;;
81152;SDS011;70630;45.546;10.198;2023-07-22T08:18:25;5.75;;;2.60;;
81152;SDS011;70630;45.546;10.198;2023-07-22T08:20:52;5.53;;;2.75;;
81152;SDS011;70630;45.546;10.198;2023-07-22T08:23:19;6.97;;;2.80;;
81152;SDS011;70630;45.546;10.198;2023-07-22T08:25:45;7.43;;;2.90;;
81152;SDS011;70630;45.546;10.198;2023-07-22T08:28:12;5.85;;;2.40;;
81152;SDS011;70630;45.546;10.198;2023-07-22T08:30:38;9.15;;;2.60;;
81152;SDS011;70630;45.546;10.198;2023-07-22T08:33:05;6.38;;;2.60;;
81152;SDS011;70630;45.546;10.198;2023-07-22T08:35:33;6.22;;;2.60;;
81152;SDS011;70630;45.546;10.198;2023-07-22T08:38:00;5.40;;;2.50;;
81152;SDS011;70630;45.546;10.198;2023-07-22T08:40:27;6.30;;;2.67;;
81152;SDS011;70630;45.546;10.198;2023-07-22T08:42:53;6.85;;;3.08;;
81152;SDS011;70630;45.546;10.198;2023-07-22T08:45:22;6.13;;;2.63;;
81152;SDS011;70630;45.546;10.198;2023-07-22T08:47:50;5.93;;;2.50;;
81152;SDS011;70630;45.546;10.198;2023-07-22T08:50:19;6.60;;;2.72;;
81152;SDS011;70630;45.546;10.198;2023-07-22T08:52:46;6.40;;;2.83;;
81152;SDS011;70630;45.546;10.198;2023-07-22T08:55:13;6.60;;;2.88;;
81152;SDS011;70630;45.546;10.198;2023-07-22T08:57:39;6.93;;;2.60;;
81152;SDS011;70630;45.546;10.198;2023-07-22T09:00:07;7.25;;;2.78;;
81152;SDS011;70630;45.546;10.198;2023-07-22T09:02:35;4.85;;;2.45;;
81152;SDS011;70630;45.546;10.198;2023-07-22T09:05:01;7.53;;;2.80;;
81152;SDS011;70630;45.546;10.198;2023-07-22T09:07:28;6.85;;;2.70;;
81152;SDS011;70630;45.546;10.198;2023-07-22T09:09:54;7.00;;;2.78;;
81152;SDS011;70630;45.546;10.198;2023-07-22T09:12:22;6.05;;;2.85;;
81152;SDS011;70630;45.546;10.198;2023-07-22T09:14:48;6.25;;;2.70;;
81152;SDS011;70630;45.546;10.198;2023-07-22T09:17:15;7.32;;;2.80;;
81152;SDS011;70630;45.546;10.198;2023-07-22T09:19:41;6.50;;;2.60;;
81152;SDS011;70630;45.546;10.198;2023-07-22T09:22:07;6.55;;;2.60;;
81152;SDS011;70630;45.546;10.198;2023-07-22T09:24:33;6.47;;;2.90;;
81152;SDS011;70630;45.546;10.198;2023-07-22T09:26:59;6.60;;;2.80;;
81152;SDS011;70630;45.546;10.198;2023-07-22T09:29:35;8.32;;;3.10;;
81152;SDS011;70630;45.546;10.198;2023-07-22T09:32:01;6.75;;;2.90;;
81152;SDS011;70630;45.546;10.198;2023-07-22T09:34:28;6.75;;;2.72;;
81152;SDS011;70630;45.546;10.198;2023-07-22T09:36:55;5.97;;;2.72;;
81152;SDS011;70630;45.546;10.198;2023-07-22T09:39:22;7.13;;;2.75;;
81152;SDS011;70630;45.546;10.198;2023-07-22T09:41:48;6.70;;;3.17;;
81152;SDS011;70630;45.546;10.198;2023-07-22T09:44:15;7.55;;;3.00;;
81152;SDS011;70630;45.546;10.198;2023-07-22T09:46:41;6.28;;;2.67;;
81152;SDS011;70630;45.546;10.198;2023-07-22T09:49:11;5.93;;;2.53;;
81152;SDS011;70630;45.546;10.198;2023-07-22T09:51:38;8.88;;;2.90;;
81152;SDS011;70630;45.546;10.198;2023-07-22T09:54:05;7.57;;;3.05;;
81152;SDS011;70630;45.546;10.198;2023-07-22T09:56:31;7.30;;;3.20;;
81152;SDS011;70630;45.546;10.198;2023-07-22T09:59:04;7.82;;;2.67;;
81152;SDS011;70630;45.546;10.198;2023-07-22T10:01:33;7.30;;;3.10;;
81152;SDS011;70630;45.546;10.198;2023-07-22T10:04:00;8.30;;;3.13;;
81152;SDS011;70630;45.546;10.198;2023-07-22T10:06:29;7.88;;;3.00;;
81152;SDS011;70630;45.546;10.198;2023-07-22T10:08:56;7.40;;;2.70;;
81152;SDS011;70630;45.546;10.198;2023-07-22T10:11:24;6.82;;;2.97;;
81152;SDS011;70630;45.546;10.198;2023-07-22T10:13:52;9.25;;;3.50;;
81152;SDS011;70630;45.546;10.198;2023-07-22T10:16:19;13.63;;;8.18;;
81152;SDS011;70630;45.546;10.198;2023-07-22T10:18:45;8.95;;;3.60;;
81152;SDS011;70630;45.546;10.198;2023-07-22T10:21:12;8.98;;;3.30;;
81152;SDS011;70630;45.546;10.198;2023-07-22T10:23:41;9.48;;;3.58;;
81152;SDS011;70630;45.546;10.198;2023-07-22T10:26:08;8.32;;;3.28;;
81152;SDS011;70630;45.546;10.198;2023-07-22T10:28:38;9.05;;;3.17;;
81152;SDS011;70630;45.546;10.198;2023-07-22T10:31:05;7.50;;;2.90;;
81152;SDS011;70630;45.546;10.198;2023-07-22T10:33:32;8.32;;;3.10;;
81152;SDS011;70630;45.546;10.198;2023-07-22T10:36:02;9.57;;;3.55;;
81152;SDS011;70630;45.546;10.198;2023-07-22T10:38:29;7.70;;;3.45;;
81152;SDS011;70630;45.546;10.198;2023-07-22T10:40:55;8.98;;;3.30;;
81152;SDS011;70630;45.546;10.198;2023-07-22T10:43:32;8.25;;;3.28;;
81152;SDS011;70630;45.546;10.198;2023-07-22T10:46:08;7.25;;;3.42;;
81152;SDS011;70630;45.546;10.198;2023-07-22T10:48:36;9.27;;;3.50;;
81152;SDS011;70630;45.546;10.198;2023-07-22T10:51:06;7.57;;;3.00;;
81152;SDS011;70630;45.546;10.198;2023-07-22T10:53:37;6.30;;;3.13;;
81152;SDS011;70630;45.546;10.198;2023-07-22T10:56:10;7.35;;;3.10;;
81152;SDS011;70630;45.546;10.198;2023-07-22T11:04:03;7.05;;;2.95;;
81152;SDS011;70630;45.546;10.198;2023-07-22T11:06:30;8.43;;;3.70;;
81152;SDS011;70630;45.546;10.198;2023-07-22T11:08:56;7.68;;;3.63;;
81152;SDS011;70630;45.546;10.198;2023-07-22T11:11:44;8.90;;;3.28;;
81152;SDS011;70630;45.546;10.198;2023-07-22T11:14:17;7.35;;;3.22;;
81152;SDS011;70630;45.546;10.198;2023-07-22T11:16:44;10.23;;;3.38;;
81152;SDS011;70630;45.546;10.198;2023-07-22T11:19:14;9.05;;;3.40;;
81152;SDS011;70630;45.546;10.198;2023-07-22T11:21:41;7.68;;;3.03;;
81152;SDS011;70630;45.546;10.198;2023-07-22T11:24:07;7.88;;;3.20;;
81152;SDS011;70630;45.546;10.198;2023-07-22T11:26:33;6.32;;;2.80;;
81152;SDS011;70630;45.546;10.198;2023-07-22T11:29:00;7.05;;;2.85;;
81152;SDS011;70630;45.546;10.198;2023-07-22T11:31:30;8.07;;;3.20;;
81152;SDS011;70630;45.546;10.198;2023-07-22T11:33:56;7.95;;;3.03;;
81152;SDS011;70630;45.546;10.198;2023-07-22T11:36:23;6.38;;;2.92;;
81152;SDS011;70630;45.546;10.198;2023-07-22T11:38:49;7.80;;;3.35;;
81152;SDS011;70630;45.546;10.198;2023-07-22T11:41:15;7.72;;;3.47;;
81152;SDS011;70630;45.546;10.198;2023-07-22T11:43:41;7.03;;;3.28;;
81152;SDS011;70630;45.546;10.198;2023-07-22T11:46:07;9.18;;;3.08;;
81152;SDS011;70630;45.546;10.198;2023-07-22T11:48:33;9.25;;;3.20;;
81152;SDS011;70630;45.546;10.198;2023-07-22T11:50:59;9.38;;;2.97;;
81152;SDS011;70630;45.546;10.198;2023-07-22T11:53:26;8.63;;;3.00;;
81152;SDS011;70630;45.546;10.198;2023-07-22T11:55:55;7.30;;;2.88;;
81152;SDS011;70630;45.546;10.198;2023-07-22T11:58:25;6.55;;;2.72;;
81152;SDS011;70630;45.546;10.198;2023-07-22T12:01:09;5.55;;;2.47;;
81152;SDS011;70630;45.546;10.198;2023-07-22T12:03:36;5.82;;;2.72;;
81152;SDS011;70630;45.546;10.198;2023-07-22T12:06:08;6.85;;;2.47;;
81152;SDS011;70630;45.546;10.198;2023-07-22T12:08:34;5.38;;;2.55;;
81152;SDS011;70630;45.546;10.198;2023-07-22T12:11:03;7.38;;;2.60;;
81152;SDS011;70630;45.546;10.198;2023-07-22T12:13:35;5.53;;;2.70;;
81152;SDS011;70630;45.546;10.198;2023-07-22T12:16:02;5.28;;;2.30;;
81152;SDS011;70630;45.546;10.198;2023-07-22T12:18:28;6.78;;;2.70;;
81152;SDS011;70630;45.546;10.198;2023-07-22T12:20:56;6.22;;;2.50;;
81152;SDS011;70630;45.546;10.198;2023-07-22T12:23:23;6.25;;;2.88;;
81152;SDS011;70630;45.546;10.198;2023-07-22T12:25:49;5.43;;;2.45;;
81152;SDS011;70630;45.546;10.198;2023-07-22T12:28:15;6.97;;;2.53;;
81152;SDS011;70630;45.546;10.198;2023-07-22T12:30:41;6.15;;;2.40;;
81152;SDS011;70630;45.546;10.198;2023-07-22T12:33:07;5.75;;;2.60;;
81152;SDS011;70630;45.546;10.198;2023-07-22T12:35:33;5.60;;;2.63;;
81152;SDS011;70630;45.546;10.198;2023-07-22T12:37:59;6.70;;;3.20;;
81152;SDS011;70630;45.546;10.198;2023-07-22T12:40:25;8.55;;;2.95;;
81152;SDS011;70630;45.546;10.198;2023-07-22T12:42:51;6.13;;;2.42;;
81152;SDS011;70630;45.546;10.198;2023-07-22T12:45:17;6.15;;;2.63;;
81152;SDS011;70630;45.546;10.198;2023-07-22T12:47:43;5.30;;;2.50;;
81152;SDS011;70630;45.546;10.198;2023-07-22T12:50:09;5.38;;;2.60;;
81152;SDS011;70630;45.546;10.198;2023-07-22T12:52:35;6.70;;;3.10;;
81152;SDS011;70630;45.546;10.198;2023-07-22T12:55:01;6.60;;;3.30;;
81152;SDS011;70630;45.546;10.198;2023-07-22T12:57:28;6.47;;;2.60;;
81152;SDS011;70630;45.546;10.198;2023-07-22T12:59:54;5.57;;;2.60;;
81152;SDS011;70630;45.546;10.198;2023-07-22T13:02:22;5.53;;;2.78;;
81152;SDS011;70630;45.546;10.198;2023-07-22T13:04:48;5.80;;;2.70;;
81152;SDS011;70630;45.546;10.198;2023-07-22T13:07:14;5.95;;;2.97;;
81152;SDS011;70630;45.546;10.198;2023-07-22T13:09:48;8.25;;;3.20;;
81152;SDS011;70630;45.546;10.198;2023-07-22T13:12:20;9.02;;;3.10;;
81152;SDS011;70630;45.546;10.198;2023-07-22T13:14:46;6.05;;;2.85;;
81152;SDS011;70630;45.546;10.198;2023-07-22T13:17:12;6.47;;;3.03;;
81152;SDS011;70630;45.546;10.198;2023-07-22T13:19:38;7.20;;;2.97;;
81152;SDS011;70630;45.546;10.198;2023-07-22T13:22:04;7.57;;;2.90;;
81152;SDS011;70630;45.546;10.198;2023-07-22T13:24:30;7.38;;;3.20;;
81152;SDS011;70630;45.546;10.198;2023-07-22T13:26:56;6.15;;;2.83;;
81152;SDS011;70630;45.546;10.198;2023-07-22T13:29:22;7.65;;;3.15;;
81152;SDS011;70630;45.546;10.198;2023-07-22T13:31:48;10.52;;;3.42;;
81152;SDS011;70630;45.546;10.198;2023-07-22T13:34:14;6.55;;;3.53;;
81152;SDS011;70630;45.546;10.198;2023-07-22T13:36:40;8.52;;;3.92;;
81152;SDS011;70630;45.546;10.198;2023-07-22T13:39:07;8.38;;;4.35;;
81152;SDS011;70630;45.546;10.198;2023-07-22T13:41:33;9.07;;;4.30;;
81152;SDS011;70630;45.546;10.198;2023-07-22T13:43:59;8.77;;;4.35;;
81152;SDS011;70630;45.546;10.198;2023-07-22T13:46:25;8.52;;;4.18;;
81152;SDS011;70630;45.546;10.198;2023-07-22T13:48:51;9.05;;;4.68;;
81152;SDS011;70630;45.546;10.198;2023-07-22T13:51:17;9.63;;;4.38;;
81152;SDS011;70630;45.546;10.198;2023-07-22T13:53:43;7.25;;;3.92;;
81152;SDS011;70630;45.546;10.198;2023-07-22T13:56:09;8.25;;;3.97;;
81152;SDS011;70630;45.546;10.198;2023-07-22T13:58:35;8.10;;;3.90;;
81152;SDS011;70630;45.546;10.198;2023-07-22T14:01:01;7.32;;;3.53;;
81152;SDS011;70630;45.546;10.198;2023-07-22T14:03:27;9.90;;;4.20;;
81152;SDS011;70630;45.546;10.198;2023-07-22T14:05:54;8.32;;;4.05;;
81152;SDS011;70630;45.546;10.198;2023-07-22T14:08:20;8.27;;;3.90;;
81152;SDS011;70630;45.546;10.198;2023-07-22T14:10:46;8.15;;;4.13;;
81152;SDS011;70630;45.546;10.198;2023-07-22T14:13:12;8.00;;;4.05;;
81152;SDS011;70630;45.546;10.198;2023-07-22T14:15:41;10.07;;;3.85;;
81152;SDS011;70630;45.546;10.198;2023-07-22T14:18:07;8.65;;;3.78;;
81152;SDS011;70630;45.546;10.198;2023-07-22T14:20:33;8.85;;;4.40;;
81152;SDS011;70630;45.546;10.198;2023-07-22T14:22:59;8.05;;;3.88;;
81152;SDS011;70630;45.546;10.198;2023-07-22T14:25:25;8.35;;;3.80;;
81152;SDS011;70630;45.546;10.198;2023-07-22T14:27:51;9.57;;;4.13;;
81152;SDS011;70630;45.546;10.198;2023-07-22T14:30:17;9.77;;;4.00;;
81152;SDS011;70630;45.546;10.198;2023-07-22T14:32:43;9.05;;;3.80;;
81152;SDS011;70630;45.546;10.198;2023-07-22T14:35:09;7.30;;;3.88;;
81152;SDS011;70630;45.546;10.198;2023-07-22T14:37:36;7.97;;;4.03;;
81152;SDS011;70630;45.546;10.198;2023-07-22T14:40:03;7.78;;;3.90;;
81152;SDS011;70630;45.546;10.198;2023-07-22T14:42:30;8.43;;;3.72;;
81152;SDS011;70630;45.546;10.198;2023-07-22T14:44:56;8.45;;;3.55;;
81152;SDS011;70630;45.546;10.198;2023-07-22T14:47:22;9.75;;;4.03;;
81152;SDS011;70630;45.546;10.198;2023-07-22T14:49:48;8.77;;;4.13;;
81152;SDS011;70630;45.546;10.198;2023-07-22T14:52:14;12.10;;;4.03;;
81152;SDS011;70630;45.546;10.198;2023-07-22T14:54:40;7.35;;;3.85;;
81152;SDS011;70630;45.546;10.198;2023-07-22T14:57:07;9.43;;;4.35;;
81152;SDS011;70630;45.546;10.198;2023-07-22T14:59:33;9.73;;;4.00;;
81152;SDS011;70630;45.546;10.198;2023-07-22T15:01:59;9.27;;;4.28;;
81152;SDS011;70630;45.546;10.198;2023-07-22T15:04:25;9.05;;;3.90;;
81152;SDS011;70630;45.546;10.198;2023-07-22T15:06:54;9.43;;;4.22;;
81152;SDS011;70630;45.546;10.198;2023-07-22T15:09:20;8.55;;;3.72;;
81152;SDS011;70630;45.546;10.198;2023-07-22T15:11:46;8.05;;;3.92;;
81152;SDS011;70630;45.546;10.198;2023-07-22T15:14:12;8.13;;;4.28;;
81152;SDS011;70630;45.546;10.198;2023-07-22T15:16:38;8.32;;;4.40;;
81152;SDS011;70630;45.546;10.198;2023-07-22T15:19:05;8.15;;;4.22;;
81152;SDS011;70630;45.546;10.198;2023-07-22T15:21:33;9.35;;;4.60;;
81152;SDS011;70630;45.546;10.198;2023-07-22T15:23:59;8.88;;;4.45;;
81152;SDS011;70630;45.546;10.198;2023-07-22T15:26:25;8.65;;;4.20;;
81152;SDS011;70630;45.546;10.198;2023-07-22T15:28:51;10.50;;;4.35;;
81152;SDS011;70630;45.546;10.198;2023-07-22T15:31:17;9.57;;;4.15;;
81152;SDS011;70630;45.546;10.198;2023-07-22T15:33:44;9.70;;;4.20;;
81152;SDS011;70630;45.546;10.198;2023-07-22T15:36:10;9.55;;;4.10;;
81152;SDS011;70630;45.546;10.198;2023-07-22T15:38:36;8.80;;;4.15;;
81152;SDS011;70630;45.546;10.198;2023-07-22T15:41:02;7.90;;;4.32;;
81152;SDS011;70630;45.546;10.198;2023-07-22T15:43:28;8.15;;;4.35;;
81152;SDS011;70630;45.546;10.198;2023-07-22T15:45:54;10.38;;;4.35;;
81152;SDS011;70630;45.546;10.198;2023-07-22T15:48:21;8.30;;;4.18;;
81152;SDS011;70630;45.546;10.198;2023-07-22T15:50:47;9.35;;;4.35;;
81152;SDS011;70630;45.546;10.198;2023-07-22T15:53:14;8.43;;;4.20;;
81152;SDS011;70630;45.546;10.198;2023-07-22T15:55:40;9.05;;;4.10;;
81152;SDS011;70630;45.546;10.198;2023-07-22T15:58:07;7.97;;;4.00;;
81152;SDS011;70630;45.546;10.198;2023-07-22T16:00:33;8.10;;;4.20;;
81152;SDS011;70630;45.546;10.198;2023-07-22T16:02:59;8.93;;;4.03;;
81152;SDS011;70630;45.546;10.198;2023-07-22T16:05:25;8.40;;;3.80;;
81152;SDS011;70630;45.546;10.198;2023-07-22T16:07:51;8.63;;;4.30;;
81152;SDS011;70630;45.546;10.198;2023-07-22T16:10:18;8.07;;;4.55;;
81152;SDS011;70630;45.546;10.198;2023-07-22T16:12:44;9.25;;;4.30;;
81152;SDS011;70630;45.546;10.198;2023-07-22T16:15:10;10.73;;;4.70;;
81152;SDS011;70630;45.546;10.198;2023-07-22T16:17:36;10.35;;;4.35;;